createdAt,value
2022-11-02T00:01:09.663Z,4.40
2022-11-02T00:03:37.478Z,4.47
2022-11-02T00:06:05.359Z,3.70
2022-11-02T00:08:33.090Z,4.47
2022-11-02T00:11:02.191Z,5.03
2022-11-02T00:13:29.969Z,3.57
2022-11-02T00:15:58.093Z,4.07
2022-11-02T00:18:25.913Z,5.07
2022-11-02T00:20:53.746Z,3.73
2022-11-02T00:23:21.514Z,3.67
2022-11-02T00:25:51.182Z,3.17
2022-11-02T00:28:20.391Z,3.47
2022-11-02T00:30:48.777Z,4.37
2022-11-02T00:33:16.652Z,3.20
2022-11-02T00:35:45.711Z,3.10
2022-11-02T00:38:13.973Z,3.60
2022-11-02T00:40:41.737Z,3.97
2022-11-02T00:43:09.462Z,4.87
2022-11-02T00:45:38.576Z,5.70
2022-11-02T00:48:07.234Z,4.90
2022-11-02T00:50:35.216Z,4.30
2022-11-02T00:53:04.037Z,3.87
2022-11-02T00:55:31.975Z,4.20
2022-11-02T00:58:04.100Z,4.27
2022-11-02T01:00:32.419Z,3.73
2022-11-02T01:03:02.630Z,3.77
2022-11-02T01:05:30.657Z,4.73
2022-11-02T01:07:58.347Z,3.93
2022-11-02T01:10:27.471Z,4.13
2022-11-02T01:12:55.199Z,3.13
2022-11-02T01:15:22.942Z,2.50
2022-11-02T01:17:50.935Z,3.67
2022-11-02T01:20:20.494Z,4.37
2022-11-02T01:22:48.241Z,4.10
2022-11-02T01:25:16.004Z,4.53
2022-11-02T01:27:43.726Z,4.97
2022-11-02T01:30:13.691Z,5.07
2022-11-02T01:32:41.450Z,3.77
2022-11-02T01:35:10.307Z,4.37
2022-11-02T01:37:41.228Z,4.07
2022-11-02T01:40:10.740Z,3.63
2022-11-02T01:42:38.479Z,3.60
2022-11-02T01:45:07.848Z,3.80
2022-11-02T01:47:39.122Z,4.07
2022-11-02T01:50:11.454Z,4.57
2022-11-02T01:52:41.317Z,4.27
2022-11-02T01:55:13.634Z,4.00
2022-11-02T01:57:44.711Z,4.47
2022-11-02T02:00:16.374Z,4.03
2022-11-02T02:02:50.241Z,4.90
2022-11-02T02:05:20.520Z,5.33
2022-11-02T02:07:51.527Z,5.03
2022-11-02T02:10:19.658Z,5.57
2022-11-02T02:12:48.388Z,5.10
2022-11-02T02:15:23.807Z,5.20
2022-11-02T02:17:57.055Z,4.77
2022-11-02T02:20:42.913Z,5.07
2022-11-02T02:23:34.930Z,4.37
2022-11-02T02:26:32.331Z,5.10
2022-11-02T02:29:04.777Z,4.10
2022-11-02T02:31:37.991Z,4.60
2022-11-02T02:34:11.739Z,5.10
2022-11-02T02:39:25.333Z,4.70
2022-11-02T02:41:59.324Z,5.40
2022-11-02T02:44:35.826Z,4.57
2022-11-02T02:47:07.624Z,4.20
2022-11-02T02:49:41.564Z,5.13
2022-11-02T02:52:10.813Z,4.07
2022-11-02T02:54:42.650Z,4.83
2022-11-02T02:57:13.916Z,4.13
2022-11-02T02:59:44.807Z,3.80
2022-11-02T03:02:18.589Z,4.57
2022-11-02T03:04:46.517Z,4.43
2022-11-02T03:07:20.010Z,5.13
2022-11-02T03:09:53.165Z,4.07
2022-11-02T03:12:27.990Z,4.70
2022-11-02T03:15:10.359Z,3.33
2022-11-02T03:17:53.779Z,5.57
2022-11-02T03:20:30.318Z,4.30
2022-11-02T03:23:09.542Z,5.30
2022-11-02T03:25:48.758Z,4.00
2022-11-02T03:28:23.020Z,3.63
2022-11-02T03:30:59.836Z,3.47
2022-11-02T03:33:34.746Z,4.10
2022-11-02T03:36:10.170Z,5.30
2022-11-02T03:38:44.891Z,4.60
2022-11-02T03:41:16.551Z,5.23
2022-11-02T03:43:47.709Z,4.73
2022-11-02T03:46:19.907Z,4.10
2022-11-02T03:48:51.151Z,7.00
2022-11-02T03:51:23.720Z,5.33
2022-11-02T03:53:57.770Z,4.70
2022-11-02T03:56:29.102Z,5.60
2022-11-02T03:58:57.877Z,5.63
2022-11-02T04:01:28.648Z,4.67
2022-11-02T04:03:57.716Z,4.40
2022-11-02T04:06:27.279Z,3.80
2022-11-02T04:08:55.128Z,3.87
2022-11-02T04:11:40.628Z,5.90
2022-11-02T04:14:25.383Z,5.17
2022-11-02T04:17:15.572Z,5.40
2022-11-02T04:19:49.803Z,5.83
2022-11-02T04:22:36.823Z,4.40
2022-11-02T04:25:21.973Z,5.13
2022-11-02T04:28:10.120Z,3.90
2022-11-02T04:31:00.761Z,4.03
2022-11-02T04:33:33.632Z,3.83
2022-11-02T04:36:21.643Z,4.33
2022-11-02T04:38:53.196Z,4.27
2022-11-02T04:41:44.046Z,4.27
2022-11-02T04:44:20.831Z,4.00
2022-11-02T04:46:57.519Z,3.53
2022-11-02T04:49:29.556Z,3.87
2022-11-02T04:51:57.391Z,3.50
2022-11-02T04:54:26.293Z,3.73
2022-11-02T04:56:58.249Z,4.23
2022-11-02T04:59:27.307Z,4.33
2022-11-02T05:01:55.140Z,4.20
2022-11-02T05:04:25.580Z,4.17
2022-11-02T05:07:00.286Z,4.83
2022-11-02T05:09:29.457Z,3.57
2022-11-02T05:11:57.636Z,4.87
2022-11-02T05:14:26.058Z,5.87
2022-11-02T05:16:54.313Z,5.70
2022-11-02T05:19:22.119Z,5.40
2022-11-02T05:21:50.586Z,4.97
2022-11-02T05:24:20.162Z,9.50
2022-11-02T05:26:52.965Z,7.93
2022-11-02T05:29:23.842Z,11.77
2022-11-02T05:31:53.183Z,10.40
2022-11-02T05:34:21.172Z,6.43
2022-11-02T05:36:49.878Z,5.37
2022-11-02T05:39:17.803Z,5.90
2022-11-02T05:41:47.288Z,6.60
2022-11-02T05:44:15.442Z,9.43
2022-11-02T05:46:44.425Z,9.43
2022-11-02T05:49:12.129Z,7.63
2022-11-02T05:51:39.861Z,31.10
2022-11-02T05:54:07.575Z,8.60
2022-11-02T05:56:35.374Z,5.37
2022-11-02T05:59:04.521Z,9.27
2022-11-02T06:01:32.665Z,11.70
2022-11-02T06:04:00.434Z,6.03
2022-11-02T06:06:28.141Z,4.53
2022-11-02T06:08:55.905Z,4.30
2022-11-02T06:11:23.631Z,3.90
2022-11-02T06:13:52.529Z,5.00
2022-11-02T06:16:23.317Z,3.77
2022-11-02T06:18:51.885Z,3.93
2022-11-02T06:21:19.653Z,13.13
2022-11-02T06:23:48.484Z,6.17
2022-11-02T06:26:16.649Z,4.90
2022-11-02T06:28:44.363Z,6.20
2022-11-02T06:31:12.617Z,7.90
2022-11-02T06:33:42.080Z,4.00
2022-11-02T06:36:10.386Z,4.13
2022-11-02T06:38:39.470Z,4.27
2022-11-02T06:41:07.425Z,3.53
2022-11-02T06:43:38.500Z,4.87
2022-11-02T06:46:07.203Z,3.87
2022-11-02T06:48:35.857Z,4.90
2022-11-02T06:51:06.352Z,5.83
2022-11-02T06:53:34.536Z,6.60
2022-11-02T06:56:02.474Z,5.13
2022-11-02T06:58:30.925Z,4.17
2022-11-02T07:01:00.675Z,14.50
2022-11-02T07:03:28.892Z,14.67
2022-11-02T07:05:57.073Z,10.93
2022-11-02T07:08:27.223Z,7.50
2022-11-02T07:10:55.271Z,7.60
2022-11-02T07:13:23.121Z,4.63
2022-11-02T07:15:53.131Z,4.80
2022-11-02T07:18:21.225Z,4.70
2022-11-02T07:20:49.344Z,4.70
2022-11-02T07:23:17.055Z,5.47
2022-11-02T07:25:46.097Z,5.67
2022-11-02T07:28:13.821Z,5.17
2022-11-02T07:30:41.674Z,6.33
2022-11-02T07:33:09.430Z,8.37
2022-11-02T07:35:37.215Z,11.93
2022-11-02T07:38:06.579Z,15.30
2022-11-02T07:40:36.275Z,15.53
2022-11-02T07:43:06.550Z,13.90
2022-11-02T07:45:49.437Z,11.40
2022-11-02T07:48:17.144Z,10.53
2022-11-02T07:50:44.881Z,9.80
2022-11-02T07:53:12.971Z,9.10
2022-11-02T07:55:41.378Z,9.00
2022-11-02T07:58:14.020Z,9.00
2022-11-02T08:00:43.017Z,8.13
2022-11-02T08:03:12.723Z,8.90
2022-11-02T08:05:42.780Z,8.13
2022-11-02T08:08:13.895Z,8.27
2022-11-02T08:10:42.847Z,7.73
2022-11-02T08:13:14.166Z,8.20
2022-11-02T08:15:42.287Z,7.63
2022-11-02T08:18:14.862Z,9.30
2022-11-02T08:20:42.834Z,6.30
2022-11-02T08:23:11.430Z,6.97
2022-11-02T08:25:40.444Z,7.47
2022-11-02T08:28:11.642Z,7.00
2022-11-02T08:30:40.963Z,9.27
2022-11-02T08:33:11.610Z,8.50
2022-11-02T08:35:39.416Z,6.77
2022-11-02T08:38:08.258Z,8.27
2022-11-02T08:40:37.138Z,10.83
2022-11-02T08:43:07.042Z,6.90
2022-11-02T08:46:08.304Z,6.20
2022-11-02T08:48:25.201Z,13.17
2022-11-02T08:50:53.234Z,6.40
2022-11-02T08:53:20.930Z,16.43
2022-11-02T08:55:48.681Z,15.13
2022-11-02T08:58:16.434Z,15.63
2022-11-02T09:00:44.894Z,5.07
2022-11-02T09:03:14.916Z,4.07
2022-11-02T09:05:45.295Z,5.77
2022-11-02T09:08:14.791Z,6.47
2022-11-02T09:10:42.850Z,5.77
2022-11-02T09:13:13.297Z,6.13
2022-11-02T09:15:41.682Z,5.60
2022-11-02T09:18:09.784Z,8.73
2022-11-02T09:20:38.407Z,4.67
2022-11-02T09:23:07.677Z,5.00
2022-11-02T09:25:35.426Z,5.83
2022-11-02T09:28:03.126Z,5.37
2022-11-02T09:30:30.886Z,6.40
2022-11-02T09:32:59.746Z,5.33
2022-11-02T09:35:29.897Z,3.80
2022-11-02T09:37:58.417Z,4.17
2022-11-02T09:40:29.504Z,3.77
2022-11-02T09:43:07.182Z,5.00
2022-11-02T09:45:37.785Z,4.50
2022-11-02T09:48:17.660Z,6.13
2022-11-02T09:50:55.310Z,3.80
2022-11-02T09:53:32.526Z,5.03
2022-11-02T09:56:03.067Z,5.43
2022-11-02T09:58:35.432Z,5.80
2022-11-02T10:01:15.533Z,4.93
2022-11-02T10:03:58.083Z,4.20
2022-11-02T10:06:26.803Z,5.07
2022-11-02T10:09:05.284Z,4.77
2022-11-02T10:11:44.861Z,6.87
2022-11-02T10:14:17.622Z,7.50
2022-11-02T10:16:51.121Z,7.10
2022-11-02T10:19:24.993Z,5.23
2022-11-02T10:21:59.177Z,4.20
2022-11-02T10:24:33.230Z,3.60
2022-11-02T10:27:09.038Z,6.73
2022-11-02T10:29:46.486Z,4.67
2022-11-02T10:32:15.911Z,5.97
2022-11-02T10:34:54.149Z,4.20
2022-11-02T10:37:49.449Z,3.73
2022-11-02T10:40:31.557Z,4.87
2022-11-02T10:43:12.319Z,8.20
2022-11-02T10:46:13.267Z,8.67
2022-11-02T10:48:52.460Z,4.10
2022-11-02T10:51:21.893Z,7.17
2022-11-02T10:53:52.153Z,3.27
2022-11-02T10:56:21.695Z,6.23
2022-11-02T10:59:00.153Z,5.23
2022-11-02T11:01:29.189Z,2.67
2022-11-02T11:03:59.229Z,2.53
2022-11-02T11:06:30.102Z,4.13
2022-11-02T11:09:04.304Z,1.50
2022-11-02T11:11:35.607Z,6.17
2022-11-02T11:19:50.626Z,3.87
2022-11-02T11:22:29.558Z,3.07
2022-11-02T11:25:27.103Z,3.17
2022-11-02T11:27:57.363Z,2.63
2022-11-02T11:33:18.773Z,3.20
2022-11-02T11:35:50.581Z,2.70
2022-11-02T11:38:21.742Z,2.03
2022-11-02T11:40:53.850Z,5.60
2022-11-02T11:43:24.935Z,2.80
2022-11-02T11:46:04.917Z,3.53
2022-11-02T11:48:38.986Z,3.57
2022-11-02T11:51:25.607Z,1.63
2022-11-02T11:54:20.250Z,3.33
2022-11-02T11:56:49.190Z,3.00
2022-11-02T11:59:29.731Z,5.63
2022-11-02T12:02:00.878Z,2.73
2022-11-02T12:04:31.151Z,3.33
2022-11-02T12:07:24.464Z,2.27
2022-11-02T12:10:06.892Z,2.50
2022-11-02T12:12:48.455Z,5.10
2022-11-02T12:15:29.481Z,3.07
2022-11-02T12:18:15.405Z,3.27
2022-11-02T12:20:56.484Z,2.97
2022-11-02T12:23:47.181Z,2.47
2022-11-02T12:26:27.095Z,3.40
2022-11-02T12:29:07.390Z,3.17
2022-11-02T12:31:39.286Z,2.43
2022-11-02T12:34:22.805Z,2.17
2022-11-02T12:40:04.880Z,3.33
2022-11-02T12:42:39.268Z,3.00
2022-11-02T12:45:22.838Z,6.63
2022-11-02T12:47:57.814Z,3.13
2022-11-02T12:50:51.728Z,2.77
2022-11-02T12:53:35.982Z,4.47
2022-11-02T12:56:06.408Z,5.33
2022-11-02T12:58:37.998Z,3.90
2022-11-02T13:01:13.832Z,5.97
2022-11-02T13:03:50.240Z,5.10
2022-11-02T13:06:25.443Z,2.37
2022-11-02T13:08:58.273Z,2.17
2022-11-02T13:11:32.083Z,2.03
2022-11-02T13:14:01.414Z,3.10
2022-11-02T13:16:39.559Z,2.67
2022-11-02T13:19:15.614Z,3.77
2022-11-02T13:21:49.822Z,2.50
2022-11-02T13:24:20.180Z,3.73
2022-11-02T13:26:57.081Z,2.13
2022-11-02T13:29:36.012Z,3.77
2022-11-02T13:32:10.114Z,3.00
2022-11-02T13:34:42.229Z,2.53
2022-11-02T13:37:19.088Z,4.73
2022-11-02T13:39:51.798Z,2.20
2022-11-02T13:42:44.290Z,2.00
2022-11-02T13:45:36.979Z,1.77
2022-11-02T13:48:19.292Z,3.00
2022-11-02T13:50:51.655Z,6.33
2022-11-02T13:53:27.377Z,3.53
2022-11-02T13:55:58.393Z,5.07
2022-11-02T13:58:28.661Z,3.17
2022-11-02T14:01:02.316Z,1.63
2022-11-02T14:03:34.322Z,2.60
2022-11-02T14:06:10.366Z,3.27
2022-11-02T14:08:42.476Z,3.80
2022-11-02T14:11:36.991Z,4.90
2022-11-02T14:14:26.322Z,5.17
2022-11-02T14:17:12.123Z,5.00
2022-11-02T14:19:55.812Z,3.47
2022-11-02T14:22:24.183Z,4.17
2022-11-02T14:24:56.600Z,4.80
2022-11-02T14:27:31.569Z,3.43
2022-11-02T14:29:59.904Z,3.63
2022-11-02T14:32:50.372Z,5.73
2022-11-02T14:35:39.750Z,4.53
2022-11-02T14:38:29.105Z,4.57
2022-11-02T14:41:11.883Z,2.90
2022-11-02T14:43:59.541Z,3.07
2022-11-02T14:46:47.365Z,4.07
2022-11-02T14:49:22.028Z,4.13
2022-11-02T14:52:03.895Z,3.70
2022-11-02T14:54:35.293Z,9.13
2022-11-02T14:57:08.334Z,5.53
2022-11-02T14:59:45.798Z,5.27
2022-11-02T15:02:21.264Z,5.03
2022-11-02T15:04:52.070Z,4.47
2022-11-02T15:07:23.090Z,4.57
2022-11-02T15:09:59.549Z,4.20
2022-11-02T15:12:38.651Z,3.77
2022-11-02T15:15:32.162Z,6.83
2022-11-02T15:18:23.171Z,4.10
2022-11-02T15:21:29.873Z,3.60
2022-11-02T15:24:21.030Z,4.13
2022-11-02T15:26:52.185Z,3.37
2022-11-02T15:29:40.328Z,4.57
2022-11-02T15:32:19.588Z,5.73
2022-11-02T15:34:51.876Z,5.60
2022-11-02T15:37:23.439Z,5.23
2022-11-02T15:39:52.777Z,6.73
2022-11-02T15:42:30.668Z,9.07
2022-11-02T15:45:42.096Z,6.17
2022-11-02T15:48:21.754Z,7.17
2022-11-02T15:51:00.526Z,4.40
2022-11-02T15:53:40.475Z,5.37
2022-11-02T15:56:26.326Z,2.90
2022-11-02T15:59:14.177Z,4.43
2022-11-02T16:01:43.899Z,4.37
2022-11-02T16:04:23.590Z,2.43
2022-11-02T16:06:51.349Z,3.50
2022-11-02T16:09:32.480Z,4.30
2022-11-02T16:12:04.993Z,7.27
2022-11-02T16:14:33.193Z,9.23
2022-11-02T16:17:02.369Z,3.73
2022-11-02T16:19:30.104Z,4.67
2022-11-02T16:22:01.296Z,7.80
2022-11-02T16:24:29.696Z,5.90
2022-11-02T16:26:57.614Z,5.43
2022-11-02T16:29:31.433Z,5.73
2022-11-02T16:31:59.312Z,7.67
2022-11-02T16:34:31.892Z,5.33
2022-11-02T16:37:07.341Z,4.87
2022-11-02T16:39:42.057Z,5.17
2022-11-02T16:42:16.170Z,5.43
2022-11-02T16:47:19.417Z,5.90
2022-11-02T16:50:00.884Z,5.10
2022-11-02T16:52:32.808Z,4.10
2022-11-02T16:55:01.109Z,1.87
2022-11-02T16:57:31.734Z,2.53
2022-11-02T17:00:01.798Z,2.77
2022-11-02T17:02:36.494Z,2.67
2022-11-02T17:05:08.178Z,4.53
2022-11-02T17:07:40.115Z,3.77
2022-11-02T17:10:10.400Z,4.00
2022-11-02T17:12:41.604Z,3.77
2022-11-02T17:15:16.989Z,4.07
2022-11-02T17:17:44.887Z,2.63
2022-11-02T17:20:20.832Z,4.20
2022-11-02T17:22:55.467Z,5.90
2022-11-02T17:25:26.053Z,3.67
2022-11-02T17:27:55.562Z,2.73
2022-11-02T17:30:45.853Z,2.33
2022-11-02T17:33:23.675Z,2.93
2022-11-02T17:35:54.501Z,5.53
2022-11-02T17:38:25.894Z,4.17
2022-11-02T17:40:53.962Z,4.23
2022-11-02T17:43:21.826Z,4.37
2022-11-02T17:45:55.871Z,3.30
2022-11-02T17:48:24.501Z,3.40
2022-11-02T17:50:55.594Z,3.90
2022-11-02T17:53:24.416Z,3.57
2022-11-02T17:55:53.701Z,3.93
2022-11-02T17:58:21.467Z,3.20
2022-11-02T18:00:54.031Z,2.23
2022-11-02T18:03:25.488Z,3.90
2022-11-02T18:06:00.289Z,2.83
2022-11-02T18:08:51.370Z,5.00
2022-11-02T18:11:24.876Z,2.67
2022-11-02T18:13:53.903Z,5.03
2022-11-02T18:16:21.882Z,6.07
2022-11-02T18:18:49.685Z,4.83
2022-11-02T18:21:21.793Z,3.80
2022-11-02T18:23:49.588Z,5.27
2022-11-02T18:26:20.510Z,4.90
2022-11-02T18:28:48.251Z,2.70
2022-11-02T18:31:16.016Z,1.70
2022-11-02T18:33:44.341Z,2.60
2022-11-02T18:36:12.579Z,5.20
2022-11-02T18:38:42.232Z,11.17
2022-11-02T18:41:25.325Z,11.97
2022-11-02T18:43:53.406Z,7.13
2022-11-02T18:46:21.121Z,3.93
2022-11-02T18:48:49.157Z,1.90
2022-11-02T18:51:16.903Z,4.53
2022-11-02T18:53:46.077Z,2.10
2022-11-02T18:56:13.908Z,2.90
2022-11-02T18:58:41.661Z,1.80
2022-11-02T19:01:11.543Z,4.40
2022-11-02T19:03:39.597Z,5.00
2022-11-02T19:06:25.451Z,4.77
2022-11-02T19:09:11.989Z,3.63
2022-11-02T19:11:39.854Z,2.57
2022-11-02T19:14:08.467Z,2.47
2022-11-02T19:16:36.243Z,8.00
2022-11-02T19:19:04.112Z,3.10
2022-11-02T19:21:31.911Z,3.67
2022-11-02T19:24:01.054Z,3.50
2022-11-02T19:26:28.813Z,2.57
2022-11-02T19:28:58.771Z,4.13
2022-11-02T19:31:27.878Z,2.70
2022-11-02T19:33:55.774Z,3.80
2022-11-02T19:36:23.596Z,5.63
2022-11-02T19:38:51.318Z,3.77
2022-11-02T19:41:21.612Z,3.07
2022-11-02T19:43:49.342Z,6.33
2022-11-02T19:46:19.035Z,2.37
2022-11-02T19:48:47.285Z,2.67
2022-11-02T19:51:19.264Z,3.83
2022-11-02T19:53:50.665Z,3.63
2022-11-02T19:56:20.947Z,2.47
2022-11-02T19:58:50.256Z,2.10
2022-11-02T20:01:19.391Z,2.43
2022-11-02T20:03:47.706Z,2.47
2022-11-02T20:06:17.199Z,2.27
2022-11-02T20:08:45.151Z,3.73
2022-11-02T20:11:14.984Z,2.17
2022-11-02T20:13:46.009Z,2.60
2022-11-02T20:16:15.864Z,3.43
2022-11-02T20:18:44.930Z,2.00
2022-11-02T20:21:15.205Z,1.77
2022-11-02T20:23:44.030Z,1.70
2022-11-02T20:26:13.295Z,2.30
2022-11-02T20:28:44.149Z,3.10
2022-11-02T20:31:15.159Z,1.80
2022-11-02T20:33:43.556Z,2.27
2022-11-02T20:36:11.781Z,3.00
2022-11-02T20:38:40.149Z,3.07
2022-11-02T20:41:09.633Z,4.80
2022-11-02T20:43:38.491Z,1.70
2022-11-02T20:49:08.521Z,3.70
2022-11-02T20:51:48.085Z,4.43
2022-11-02T20:54:18.261Z,3.97
2022-11-02T20:56:46.108Z,3.30
2022-11-02T20:59:13.971Z,2.23
2022-11-02T21:01:41.933Z,3.13
2022-11-02T21:04:16.906Z,2.20
2022-11-02T21:06:48.308Z,1.90
2022-11-02T21:09:16.155Z,3.20
2022-11-02T21:12:01.251Z,1.67
2022-11-02T21:14:29.207Z,2.73
2022-11-02T21:16:56.975Z,3.23
2022-11-02T21:19:26.561Z,1.80
2022-11-02T21:21:59.440Z,1.83
2022-11-02T21:24:28.296Z,2.93
2022-11-02T21:26:56.072Z,2.00
2022-11-02T21:29:24.097Z,2.80
2022-11-02T21:31:51.874Z,3.73
2022-11-02T21:34:19.663Z,3.67
2022-11-02T21:36:49.887Z,6.07
2022-11-02T21:39:17.927Z,3.47
2022-11-02T21:41:45.678Z,3.53
2022-11-02T21:44:13.514Z,5.03
2022-11-02T21:46:41.301Z,6.77
2022-11-02T21:49:09.242Z,6.73
2022-11-02T21:51:38.387Z,5.40
2022-11-02T21:54:07.636Z,9.03
2022-11-02T21:56:36.065Z,13.67
2022-11-02T21:59:05.212Z,16.17
2022-11-02T22:01:46.930Z,13.87
2022-11-02T22:04:19.381Z,6.17
2022-11-02T22:06:47.100Z,3.60
2022-11-02T22:09:16.184Z,2.80
2022-11-02T22:11:46.710Z,3.37
2022-11-02T22:14:14.348Z,3.20
2022-11-02T22:16:44.286Z,2.83
2022-11-02T22:19:13.538Z,2.80
2022-11-02T22:21:43.735Z,3.10
2022-11-02T22:24:12.488Z,4.10
2022-11-02T22:26:42.086Z,4.83
2022-11-02T22:29:10.287Z,2.93
2022-11-02T22:31:40.125Z,3.47
2022-11-02T22:34:10.260Z,4.37
2022-11-02T22:36:39.876Z,3.33
2022-11-02T22:39:09.310Z,4.33
2022-11-02T22:41:38.903Z,3.33
2022-11-02T22:44:09.892Z,2.77
2022-11-02T22:46:40.857Z,3.87
2022-11-02T22:49:10.075Z,3.20
2022-11-02T22:51:39.396Z,2.60
2022-11-02T22:54:08.963Z,5.87
2022-11-02T22:56:37.212Z,4.53
2022-11-02T22:59:05.950Z,3.27
2022-11-02T23:01:36.592Z,3.30
2022-11-02T23:04:05.467Z,4.13
2022-11-02T23:06:33.725Z,2.93
2022-11-02T23:09:02.124Z,3.00
2022-11-02T23:11:31.110Z,3.30
2022-11-02T23:14:00.553Z,2.70
2022-11-02T23:16:30.911Z,3.50
2022-11-02T23:19:27.341Z,2.60
2022-11-02T23:22:15.706Z,3.43
2022-11-02T23:25:02.837Z,3.43
2022-11-02T23:27:31.733Z,3.30
2022-11-02T23:30:16.832Z,3.37
2022-11-02T23:32:44.582Z,3.77
2022-11-02T23:35:30.918Z,3.77
2022-11-02T23:38:04.168Z,4.27
2022-11-02T23:40:32.507Z,4.40
2022-11-02T23:43:00.409Z,4.23
2022-11-02T23:45:28.130Z,2.93
2022-11-02T23:48:00.856Z,5.40
2022-11-02T23:50:50.565Z,3.20
2022-11-02T23:53:38.286Z,3.57
2022-11-02T23:56:25.002Z,3.20
2022-11-02T23:59:06.387Z,3.13
